sensor_id;sensor_type;location;lat;lon;timestamp;temperature;humidity
45008;DHT22;30743;52.008;5.644;2023-06-10T00:00:42;28.00;83.80
45008;DHT22;30743;52.008;5.644;2023-06-10T00:03:08;28.00;83.60
45008;DHT22;30743;52.008;5.644;2023-06-10T00:05:37;28.00;83.60
45008;DHT22;30743;52.008;5.644;2023-06-10T00:08:04;27.90;83.70
45008;DHT22;30743;52.008;5.644;2023-06-10T00:10:33;27.90;84.10
45008;DHT22;30743;52.008;5.644;2023-06-10T00:13:00;27.90;84.00
45008;DHT22;30743;52.008;5.644;2023-06-10T00:15:26;27.80;84.30
45008;DHT22;30743;52.008;5.644;2023-06-10T00:17:52;27.70;84.00
45008;DHT22;30743;52.008;5.644;2023-06-10T00:20:20;27.70;84.10
45008;DHT22;30743;52.008;5.644;2023-06-10T00:22:49;27.70;84.10
45008;DHT22;30743;52.008;5.644;2023-06-10T00:25:15;27.60;84.10
45008;DHT22;30743;52.008;5.644;2023-06-10T00:27:40;27.60;84.40
45008;DHT22;30743;52.008;5.644;2023-06-10T00:30:06;27.50;84.30
45008;DHT22;30743;52.008;5.644;2023-06-10T00:32:36;27.50;84.20
45008;DHT22;30743;52.008;5.644;2023-06-10T00:35:03;27.50;84.00
45008;DHT22;30743;52.008;5.644;2023-06-10T00:37:28;27.40;84.10
45008;DHT22;30743;52.008;5.644;2023-06-10T00:39:55;27.40;83.90
45008;DHT22;30743;52.008;5.644;2023-06-10T00:42:20;27.40;84.10
45008;DHT22;30743;52.008;5.644;2023-06-10T00:44:48;27.40;83.90
45008;DHT22;30743;52.008;5.644;2023-06-10T00:47:13;27.30;83.80
45008;DHT22;30743;52.008;5.644;2023-06-10T00:49:39;27.30;83.30
45008;DHT22;30743;52.008;5.644;2023-06-10T00:52:06;27.20;83.50
45008;DHT22;30743;52.008;5.644;2023-06-10T00:54:32;27.20;83.10
45008;DHT22;30743;52.008;5.644;2023-06-10T00:57:01;27.10;83.20
45008;DHT22;30743;52.008;5.644;2023-06-10T00:59:29;27.20;83.10
45008;DHT22;30743;52.008;5.644;2023-06-10T01:01:56;27.20;83.10
45008;DHT22;30743;52.008;5.644;2023-06-10T01:04:21;27.10;82.80
45008;DHT22;30743;52.008;5.644;2023-06-10T01:07:28;27.10;83.00
45008;DHT22;30743;52.008;5.644;2023-06-10T01:10:19;27.00;82.60
45008;DHT22;30743;52.008;5.644;2023-06-10T01:12:52;27.00;83.10
45008;DHT22;30743;52.008;5.644;2023-06-10T01:15:20;27.00;82.90
45008;DHT22;30743;52.008;5.644;2023-06-10T01:17:58;26.90;82.60
45008;DHT22;30743;52.008;5.644;2023-06-10T01:20:26;26.90;83.30
45008;DHT22;30743;52.008;5.644;2023-06-10T01:22:56;26.90;82.30
45008;DHT22;30743;52.008;5.644;2023-06-10T01:25:23;26.90;82.40
45008;DHT22;30743;52.008;5.644;2023-06-10T01:28:10;26.90;82.40
45008;DHT22;30743;52.008;5.644;2023-06-10T01:33:09;26.80;82.40
45008;DHT22;30743;52.008;5.644;2023-06-10T01:35:37;26.80;82.00
45008;DHT22;30743;52.008;5.644;2023-06-10T01:38:03;26.80;82.30
45008;DHT22;30743;52.008;5.644;2023-06-10T01:40:29;26.70;82.00
45008;DHT22;30743;52.008;5.644;2023-06-10T01:42:56;26.70;82.20
45008;DHT22;30743;52.008;5.644;2023-06-10T01:45:21;26.70;82.30
45008;DHT22;30743;52.008;5.644;2023-06-10T01:47:47;26.70;82.30
45008;DHT22;30743;52.008;5.644;2023-06-10T01:50:12;26.60;82.30
45008;DHT22;30743;52.008;5.644;2023-06-10T01:52:38;26.60;82.30
45008;DHT22;30743;52.008;5.644;2023-06-10T01:55:04;26.60;82.30
45008;DHT22;30743;52.008;5.644;2023-06-10T01:57:30;26.50;82.40
45008;DHT22;30743;52.008;5.644;2023-06-10T01:59:55;26.50;82.10
45008;DHT22;30743;52.008;5.644;2023-06-10T02:02:21;26.50;82.30
45008;DHT22;30743;52.008;5.644;2023-06-10T02:04:47;26.50;82.40
45008;DHT22;30743;52.008;5.644;2023-06-10T02:07:13;26.50;82.50
45008;DHT22;30743;52.008;5.644;2023-06-10T02:09:38;26.40;82.60
45008;DHT22;30743;52.008;5.644;2023-06-10T02:12:04;26.60;82.70
45008;DHT22;30743;52.008;5.644;2023-06-10T02:14:32;26.30;82.70
45008;DHT22;30743;52.008;5.644;2023-06-10T02:16:58;26.30;83.00
45008;DHT22;30743;52.008;5.644;2023-06-10T02:19:23;26.30;82.90
45008;DHT22;30743;52.008;5.644;2023-06-10T02:21:52;26.30;83.10
45008;DHT22;30743;52.008;5.644;2023-06-10T02:24:17;26.30;83.00
45008;DHT22;30743;52.008;5.644;2023-06-10T02:26:43;26.30;82.90
45008;DHT22;30743;52.008;5.644;2023-06-10T02:29:08;26.20;82.90
45008;DHT22;30743;52.008;5.644;2023-06-10T02:31:34;26.20;83.00
45008;DHT22;30743;52.008;5.644;2023-06-10T02:34:01;26.20;83.50
45008;DHT22;30743;52.008;5.644;2023-06-10T02:36:27;26.10;83.70
45008;DHT22;30743;52.008;5.644;2023-06-10T02:38:53;26.10;83.80
45008;DHT22;30743;52.008;5.644;2023-06-10T02:41:18;26.00;83.80
45008;DHT22;30743;52.008;5.644;2023-06-10T02:43:44;26.00;83.80
45008;DHT22;30743;52.008;5.644;2023-06-10T02:46:10;26.00;84.00
45008;DHT22;30743;52.008;5.644;2023-06-10T02:48:45;26.00;83.90
45008;DHT22;30743;52.008;5.644;2023-06-10T02:51:10;26.00;84.10
45008;DHT22;30743;52.008;5.644;2023-06-10T02:53:36;26.00;84.20
45008;DHT22;30743;52.008;5.644;2023-06-10T02:56:02;25.90;84.40
45008;DHT22;30743;52.008;5.644;2023-06-10T02:58:27;25.90;84.50
45008;DHT22;30743;52.008;5.644;2023-06-10T03:00:53;25.90;84.80
45008;DHT22;30743;52.008;5.644;2023-06-10T03:03:18;25.90;84.80
45008;DHT22;30743;52.008;5.644;2023-06-10T03:05:45;25.90;85.10
45008;DHT22;30743;52.008;5.644;2023-06-10T03:08:10;25.90;85.10
45008;DHT22;30743;52.008;5.644;2023-06-10T03:10:36;25.80;85.00
45008;DHT22;30743;52.008;5.644;2023-06-10T03:13:01;25.80;85.30
45008;DHT22;30743;52.008;5.644;2023-06-10T03:15:27;25.80;85.50
45008;DHT22;30743;52.008;5.644;2023-06-10T03:17:54;25.70;85.50
45008;DHT22;30743;52.008;5.644;2023-06-10T03:20:20;25.80;85.70
45008;DHT22;30743;52.008;5.644;2023-06-10T03:22:46;25.70;86.00
45008;DHT22;30743;52.008;5.644;2023-06-10T03:25:12;25.70;86.00
45008;DHT22;30743;52.008;5.644;2023-06-10T03:27:40;25.70;86.10
45008;DHT22;30743;52.008;5.644;2023-06-10T03:30:06;25.60;86.00
45008;DHT22;30743;52.008;5.644;2023-06-10T03:32:32;25.60;86.30
45008;DHT22;30743;52.008;5.644;2023-06-10T03:34:57;25.60;86.50
45008;DHT22;30743;52.008;5.644;2023-06-10T03:37:24;25.50;86.40
45008;DHT22;30743;52.008;5.644;2023-06-10T03:39:50;25.50;86.50
45008;DHT22;30743;52.008;5.644;2023-06-10T03:42:15;25.50;86.70
45008;DHT22;30743;52.008;5.644;2023-06-10T03:44:41;25.60;86.90
45008;DHT22;30743;52.008;5.644;2023-06-10T03:47:07;25.50;86.80
45008;DHT22;30743;52.008;5.644;2023-06-10T03:49:32;25.40;87.00
45008;DHT22;30743;52.008;5.644;2023-06-10T03:51:58;25.40;87.30
45008;DHT22;30743;52.008;5.644;2023-06-10T03:54:24;25.30;87.50
45008;DHT22;30743;52.008;5.644;2023-06-10T03:56:49;25.30;88.00
45008;DHT22;30743;52.008;5.644;2023-06-10T03:59:15;25.30;88.00
45008;DHT22;30743;52.008;5.644;2023-06-10T04:01:41;25.30;88.20
45008;DHT22;30743;52.008;5.644;2023-06-10T04:04:07;25.10;87.90
45008;DHT22;30743;52.008;5.644;2023-06-10T04:06:32;25.20;88.30
45008;DHT22;30743;52.008;5.644;2023-06-10T04:08:58;25.10;88.40
45008;DHT22;30743;52.008;5.644;2023-06-10T04:11:24;25.10;88.60
45008;DHT22;30743;52.008;5.644;2023-06-10T04:13:50;25.10;88.80
45008;DHT22;30743;52.008;5.644;2023-06-10T04:16:16;25.10;88.90
45008;DHT22;30743;52.008;5.644;2023-06-10T04:18:42;25.10;89.00
45008;DHT22;30743;52.008;5.644;2023-06-10T04:21:07;25.10;89.20
45008;DHT22;30743;52.008;5.644;2023-06-10T04:23:35;25.10;89.20
45008;DHT22;30743;52.008;5.644;2023-06-10T04:26:02;25.00;89.40
45008;DHT22;30743;52.008;5.644;2023-06-10T04:28:28;25.10;89.60
45008;DHT22;30743;52.008;5.644;2023-06-10T04:30:53;25.10;89.70
45008;DHT22;30743;52.008;5.644;2023-06-10T04:33:19;25.10;89.90
45008;DHT22;30743;52.008;5.644;2023-06-10T04:35:44;25.10;89.90
45008;DHT22;30743;52.008;5.644;2023-06-10T04:38:13;25.00;89.90
45008;DHT22;30743;52.008;5.644;2023-06-10T04:40:39;25.00;90.00
45008;DHT22;30743;52.008;5.644;2023-06-10T04:43:05;25.00;90.10
45008;DHT22;30743;52.008;5.644;2023-06-10T04:45:30;25.10;90.20
45008;DHT22;30743;52.008;5.644;2023-06-10T04:47:56;25.00;90.20
45008;DHT22;30743;52.008;5.644;2023-06-10T04:50:23;25.10;90.30
45008;DHT22;30743;52.008;5.644;2023-06-10T04:52:48;25.10;90.30
45008;DHT22;30743;52.008;5.644;2023-06-10T04:55:15;25.10;90.30
45008;DHT22;30743;52.008;5.644;2023-06-10T04:57:41;25.10;90.40
45008;DHT22;30743;52.008;5.644;2023-06-10T05:00:06;25.10;90.50
45008;DHT22;30743;52.008;5.644;2023-06-10T05:02:33;25.10;90.50
45008;DHT22;30743;52.008;5.644;2023-06-10T05:04:59;25.20;90.50
45008;DHT22;30743;52.008;5.644;2023-06-10T05:07:25;25.10;90.60
45008;DHT22;30743;52.008;5.644;2023-06-10T05:09:51;25.20;90.70
45008;DHT22;30743;52.008;5.644;2023-06-10T05:12:16;25.10;90.70
45008;DHT22;30743;52.008;5.644;2023-06-10T05:14:42;25.20;90.70
45008;DHT22;30743;52.008;5.644;2023-06-10T05:17:07;25.30;90.80
45008;DHT22;30743;52.008;5.644;2023-06-10T05:19:33;25.30;90.80
45008;DHT22;30743;52.008;5.644;2023-06-10T05:22:01;25.30;90.70
45008;DHT22;30743;52.008;5.644;2023-06-10T05:24:28;25.40;90.90
45008;DHT22;30743;52.008;5.644;2023-06-10T05:26:53;25.40;90.80
45008;DHT22;30743;52.008;5.644;2023-06-10T05:29:19;25.40;90.60
45008;DHT22;30743;52.008;5.644;2023-06-10T05:31:45;25.50;90.60
45008;DHT22;30743;52.008;5.644;2023-06-10T05:34:10;25.50;90.60
45008;DHT22;30743;52.008;5.644;2023-06-10T05:36:36;25.60;90.60
45008;DHT22;30743;52.008;5.644;2023-06-10T05:39:02;25.70;90.40
45008;DHT22;30743;52.008;5.644;2023-06-10T05:41:28;25.70;90.30
45008;DHT22;30743;52.008;5.644;2023-06-10T05:43:53;25.80;90.40
45008;DHT22;30743;52.008;5.644;2023-06-10T05:46:19;25.90;90.50
45008;DHT22;30743;52.008;5.644;2023-06-10T05:48:45;26.00;90.30
45008;DHT22;30743;52.008;5.644;2023-06-10T05:51:11;26.00;90.20
45008;DHT22;30743;52.008;5.644;2023-06-10T05:53:36;26.10;90.10
45008;DHT22;30743;52.008;5.644;2023-06-10T05:56:02;26.20;90.00
45008;DHT22;30743;52.008;5.644;2023-06-10T05:58:27;26.20;90.00
45008;DHT22;30743;52.008;5.644;2023-06-10T06:00:53;26.30;90.10
45008;DHT22;30743;52.008;5.644;2023-06-10T06:03:18;26.30;89.90
45008;DHT22;30743;52.008;5.644;2023-06-10T06:05:44;26.40;89.80
45008;DHT22;30743;52.008;5.644;2023-06-10T06:08:11;26.50;89.80
45008;DHT22;30743;52.008;5.644;2023-06-10T06:10:38;26.60;89.60
45008;DHT22;30743;52.008;5.644;2023-06-10T06:13:04;26.70;89.50
45008;DHT22;30743;52.008;5.644;2023-06-10T06:15:29;26.50;89.20
45008;DHT22;30743;52.008;5.644;2023-06-10T06:17:55;26.90;89.80
45008;DHT22;30743;52.008;5.644;2023-06-10T06:20:21;26.90;89.10
45008;DHT22;30743;52.008;5.644;2023-06-10T06:22:47;27.00;89.10
45008;DHT22;30743;52.008;5.644;2023-06-10T06:25:13;27.00;88.90
45008;DHT22;30743;52.008;5.644;2023-06-10T06:27:39;27.60;89.20
45008;DHT22;30743;52.008;5.644;2023-06-10T06:30:05;27.20;88.60
45008;DHT22;30743;52.008;5.644;2023-06-10T06:32:30;27.30;89.00
45008;DHT22;30743;52.008;5.644;2023-06-10T06:34:56;27.40;89.30
45008;DHT22;30743;52.008;5.644;2023-06-10T06:37:22;27.50;89.50
45008;DHT22;30743;52.008;5.644;2023-06-10T06:39:53;27.50;89.30
45008;DHT22;30743;52.008;5.644;2023-06-10T06:42:19;27.60;89.20
45008;DHT22;30743;52.008;5.644;2023-06-10T06:44:46;27.60;88.60
45008;DHT22;30743;52.008;5.644;2023-06-10T06:47:12;27.70;88.70
45008;DHT22;30743;52.008;5.644;2023-06-10T06:49:38;27.70;88.10
45008;DHT22;30743;52.008;5.644;2023-06-10T06:52:03;27.70;88.00
45008;DHT22;30743;52.008;5.644;2023-06-10T06:54:29;27.80;88.40
45008;DHT22;30743;52.008;5.644;2023-06-10T06:56:55;27.80;88.20
45008;DHT22;30743;52.008;5.644;2023-06-10T06:59:20;27.90;88.20
45008;DHT22;30743;52.008;5.644;2023-06-10T07:01:46;28.00;87.80
45008;DHT22;30743;52.008;5.644;2023-06-10T07:04:14;28.10;87.90
45008;DHT22;30743;52.008;5.644;2023-06-10T07:06:40;28.10;87.40
45008;DHT22;30743;52.008;5.644;2023-06-10T07:09:05;28.10;87.00
45008;DHT22;30743;52.008;5.644;2023-06-10T07:11:31;28.20;87.40
45008;DHT22;30743;52.008;5.644;2023-06-10T07:13:57;28.30;87.30
45008;DHT22;30743;52.008;5.644;2023-06-10T07:16:22;30.80;89.80
45008;DHT22;30743;52.008;5.644;2023-06-10T07:18:48;28.40;87.70
45008;DHT22;30743;52.008;5.644;2023-06-10T07:21:14;28.50;87.70
45008;DHT22;30743;52.008;5.644;2023-06-10T07:23:43;28.50;89.30
45008;DHT22;30743;52.008;5.644;2023-06-10T07:26:09;28.60;87.70
45008;DHT22;30743;52.008;5.644;2023-06-10T07:28:40;28.60;88.60
45008;DHT22;30743;52.008;5.644;2023-06-10T07:31:06;28.70;87.20
45008;DHT22;30743;52.008;5.644;2023-06-10T07:33:31;28.80;87.10
45008;DHT22;30743;52.008;5.644;2023-06-10T07:35:57;29.00;88.10
45008;DHT22;30743;52.008;5.644;2023-06-10T07:38:22;28.90;86.20
45008;DHT22;30743;52.008;5.644;2023-06-10T07:40:48;28.90;88.20
45008;DHT22;30743;52.008;5.644;2023-06-10T07:43:13;29.00;87.20
45008;DHT22;30743;52.008;5.644;2023-06-10T07:45:40;29.10;86.30
45008;DHT22;30743;52.008;5.644;2023-06-10T07:48:06;29.20;86.40
45008;DHT22;30743;52.008;5.644;2023-06-10T07:50:32;29.30;86.10
45008;DHT22;30743;52.008;5.644;2023-06-10T07:52:58;29.50;85.80
45008;DHT22;30743;52.008;5.644;2023-06-10T07:55:23;29.60;85.60
45008;DHT22;30743;52.008;5.644;2023-06-10T07:57:51;29.70;85.90
45008;DHT22;30743;52.008;5.644;2023-06-10T08:00:17;29.80;85.40
45008;DHT22;30743;52.008;5.644;2023-06-10T08:02:43;29.90;85.00
45008;DHT22;30743;52.008;5.644;2023-06-10T08:05:08;30.00;84.60
45008;DHT22;30743;52.008;5.644;2023-06-10T08:07:34;30.10;84.50
45008;DHT22;30743;52.008;5.644;2023-06-10T08:10:01;30.20;83.90
45008;DHT22;30743;52.008;5.644;2023-06-10T08:12:26;30.20;84.40
45008;DHT22;30743;52.008;5.644;2023-06-10T08:14:52;30.40;85.00
45008;DHT22;30743;52.008;5.644;2023-06-10T08:17:17;30.50;84.40
45008;DHT22;30743;52.008;5.644;2023-06-10T08:19:43;30.70;84.30
45008;DHT22;30743;52.008;5.644;2023-06-10T08:22:08;30.70;83.10
45008;DHT22;30743;52.008;5.644;2023-06-10T08:24:35;30.80;82.00
45008;DHT22;30743;52.008;5.644;2023-06-10T08:27:00;31.00;82.00
45008;DHT22;30743;52.008;5.644;2023-06-10T08:29:26;31.10;82.50
45008;DHT22;30743;52.008;5.644;2023-06-10T08:31:51;31.20;83.80
45008;DHT22;30743;52.008;5.644;2023-06-10T08:34:17;31.40;81.70
45008;DHT22;30743;52.008;5.644;2023-06-10T08:36:43;31.50;81.80
45008;DHT22;30743;52.008;5.644;2023-06-10T08:39:09;31.70;82.00
45008;DHT22;30743;52.008;5.644;2023-06-10T08:41:39;31.80;82.80
45008;DHT22;30743;52.008;5.644;2023-06-10T08:47:17;32.10;82.30
45008;DHT22;30743;52.008;5.644;2023-06-10T08:49:44;32.20;83.00
45008;DHT22;30743;52.008;5.644;2023-06-10T08:52:17;32.30;81.10
45008;DHT22;30743;52.008;5.644;2023-06-10T08:55:01;32.40;79.40
45008;DHT22;30743;52.008;5.644;2023-06-10T08:57:28;32.60;79.50
45008;DHT22;30743;52.008;5.644;2023-06-10T08:59:57;32.70;78.30
45008;DHT22;30743;52.008;5.644;2023-06-10T09:02:23;32.90;80.10
45008;DHT22;30743;52.008;5.644;2023-06-10T09:04:49;33.00;77.80
45008;DHT22;30743;52.008;5.644;2023-06-10T09:07:16;33.20;76.70
45008;DHT22;30743;52.008;5.644;2023-06-10T09:09:45;33.40;76.80
45008;DHT22;30743;52.008;5.644;2023-06-10T09:12:12;33.50;78.00
45008;DHT22;30743;52.008;5.644;2023-06-10T09:14:38;33.70;76.60
45008;DHT22;30743;52.008;5.644;2023-06-10T09:17:05;33.80;78.10
45008;DHT22;30743;52.008;5.644;2023-06-10T09:19:30;34.00;77.00
45008;DHT22;30743;52.008;5.644;2023-06-10T09:21:56;34.10;76.20
45008;DHT22;30743;52.008;5.644;2023-06-10T09:24:22;34.30;74.60
45008;DHT22;30743;52.008;5.644;2023-06-10T09:26:49;34.50;75.00
45008;DHT22;30743;52.008;5.644;2023-06-10T09:29:16;34.60;75.30
45008;DHT22;30743;52.008;5.644;2023-06-10T09:31:43;34.80;75.50
45008;DHT22;30743;52.008;5.644;2023-06-10T09:34:11;34.90;74.90
45008;DHT22;30743;52.008;5.644;2023-06-10T09:36:38;35.10;73.80
45008;DHT22;30743;52.008;5.644;2023-06-10T09:39:04;35.20;73.10
45008;DHT22;30743;52.008;5.644;2023-06-10T09:41:39;35.40;71.70
45008;DHT22;30743;52.008;5.644;2023-06-10T09:44:16;35.60;72.10
45008;DHT22;30743;52.008;5.644;2023-06-10T09:46:42;35.70;73.30
45008;DHT22;30743;52.008;5.644;2023-06-10T09:49:10;36.00;74.00
45008;DHT22;30743;52.008;5.644;2023-06-10T09:54:10;36.20;70.90
45008;DHT22;30743;52.008;5.644;2023-06-10T09:56:36;36.40;70.90
45008;DHT22;30743;52.008;5.644;2023-06-10T09:59:02;36.50;69.30
45008;DHT22;30743;52.008;5.644;2023-06-10T10:01:30;36.60;70.30
45008;DHT22;30743;52.008;5.644;2023-06-10T10:03:55;36.80;69.50
45008;DHT22;30743;52.008;5.644;2023-06-10T10:06:21;36.90;71.10
45008;DHT22;30743;52.008;5.644;2023-06-10T10:08:48;37.00;69.50
45008;DHT22;30743;52.008;5.644;2023-06-10T10:11:19;37.20;68.20
45008;DHT22;30743;52.008;5.644;2023-06-10T10:13:48;37.40;68.80
45008;DHT22;30743;52.008;5.644;2023-06-10T10:16:23;37.40;67.30
45008;DHT22;30743;52.008;5.644;2023-06-10T10:18:55;37.60;67.90
45008;DHT22;30743;52.008;5.644;2023-06-10T10:21:24;37.70;69.40
45008;DHT22;30743;52.008;5.644;2023-06-10T10:24:03;37.80;67.90
45008;DHT22;30743;52.008;5.644;2023-06-10T10:26:31;37.90;69.80
45008;DHT22;30743;52.008;5.644;2023-06-10T10:29:04;38.10;67.60
45008;DHT22;30743;52.008;5.644;2023-06-10T10:31:32;38.20;65.30
45008;DHT22;30743;52.008;5.644;2023-06-10T10:34:04;38.30;65.90
45008;DHT22;30743;52.008;5.644;2023-06-10T10:36:31;38.40;65.90
45008;DHT22;30743;52.008;5.644;2023-06-10T10:38:57;38.50;66.20
45008;DHT22;30743;52.008;5.644;2023-06-10T10:41:24;38.70;65.00
45008;DHT22;30743;52.008;5.644;2023-06-10T10:43:52;38.60;64.70
45008;DHT22;30743;52.008;5.644;2023-06-10T10:46:19;38.90;64.50
45008;DHT22;30743;52.008;5.644;2023-06-10T10:48:45;38.90;64.00
45008;DHT22;30743;52.008;5.644;2023-06-10T10:51:11;39.10;63.40
45008;DHT22;30743;52.008;5.644;2023-06-10T10:53:38;39.00;63.00
45008;DHT22;30743;52.008;5.644;2023-06-10T10:56:07;39.00;62.00
45008;DHT22;30743;52.008;5.644;2023-06-10T10:58:34;39.00;63.50
45008;DHT22;30743;52.008;5.644;2023-06-10T11:00:59;39.10;65.30
45008;DHT22;30743;52.008;5.644;2023-06-10T11:03:29;39.10;62.30
45008;DHT22;30743;52.008;5.644;2023-06-10T11:05:58;39.20;62.80
45008;DHT22;30743;52.008;5.644;2023-06-10T11:10:58;39.40;61.80
45008;DHT22;30743;52.008;5.644;2023-06-10T11:13:26;39.40;61.40
45008;DHT22;30743;52.008;5.644;2023-06-10T11:15:52;39.50;61.20
45008;DHT22;30743;52.008;5.644;2023-06-10T11:18:26;39.50;62.60
45008;DHT22;30743;52.008;5.644;2023-06-10T11:21:03;39.60;61.80
45008;DHT22;30743;52.008;5.644;2023-06-10T11:29:04;39.90;61.70
45008;DHT22;30743;52.008;5.644;2023-06-10T11:31:52;40.00;59.60
45008;DHT22;30743;52.008;5.644;2023-06-10T11:34:23;40.10;59.70
45008;DHT22;30743;52.008;5.644;2023-06-10T11:36:51;40.20;58.20
45008;DHT22;30743;52.008;5.644;2023-06-10T11:39:18;40.30;59.40
45008;DHT22;30743;52.008;5.644;2023-06-10T11:41:45;40.30;59.30
45008;DHT22;30743;52.008;5.644;2023-06-10T11:44:12;40.40;59.10
45008;DHT22;30743;52.008;5.644;2023-06-10T11:46:38;40.40;58.50
45008;DHT22;30743;52.008;5.644;2023-06-10T11:49:05;40.50;58.90
45008;DHT22;30743;52.008;5.644;2023-06-10T11:51:38;40.50;58.30
45008;DHT22;30743;52.008;5.644;2023-06-10T11:54:08;40.60;58.60
45008;DHT22;30743;52.008;5.644;2023-06-10T11:56:34;40.60;58.40
45008;DHT22;30743;52.008;5.644;2023-06-10T11:59:01;40.70;58.20
45008;DHT22;30743;52.008;5.644;2023-06-10T12:01:32;40.80;57.80
45008;DHT22;30743;52.008;5.644;2023-06-10T12:04:03;40.70;57.70
45008;DHT22;30743;52.008;5.644;2023-06-10T12:06:48;40.70;57.50
45008;DHT22;30743;52.008;5.644;2023-06-10T12:09:21;40.70;58.40
45008;DHT22;30743;52.008;5.644;2023-06-10T12:11:56;40.80;58.90
45008;DHT22;30743;52.008;5.644;2023-06-10T12:17:19;40.80;58.30
45008;DHT22;30743;52.008;5.644;2023-06-10T12:19:46;40.90;57.60
45008;DHT22;30743;52.008;5.644;2023-06-10T12:22:13;40.90;57.70
45008;DHT22;30743;52.008;5.644;2023-06-10T12:25:06;41.00;55.80
45008;DHT22;30743;52.008;5.644;2023-06-10T12:27:32;41.10;57.50
45008;DHT22;30743;52.008;5.644;2023-06-10T12:30:00;41.50;56.50
45008;DHT22;30743;52.008;5.644;2023-06-10T12:35:06;41.30;55.70
45008;DHT22;30743;52.008;5.644;2023-06-10T12:37:32;41.30;56.50
45008;DHT22;30743;52.008;5.644;2023-06-10T12:40:03;41.20;57.20
45008;DHT22;30743;52.008;5.644;2023-06-10T12:42:29;41.20;55.70
45008;DHT22;30743;52.008;5.644;2023-06-10T12:44:56;41.20;56.20
45008;DHT22;30743;52.008;5.644;2023-06-10T12:47:36;41.20;56.40
45008;DHT22;30743;52.008;5.644;2023-06-10T12:50:04;41.20;56.20
45008;DHT22;30743;52.008;5.644;2023-06-10T12:52:30;41.20;57.50
45008;DHT22;30743;52.008;5.644;2023-06-10T12:54:56;41.30;57.80
45008;DHT22;30743;52.008;5.644;2023-06-10T12:57:22;41.30;57.70
45008;DHT22;30743;52.008;5.644;2023-06-10T12:59:48;41.70;58.30
45008;DHT22;30743;52.008;5.644;2023-06-10T13:02:20;41.30;57.20
45008;DHT22;30743;52.008;5.644;2023-06-10T13:04:47;41.20;57.50
45008;DHT22;30743;52.008;5.644;2023-06-10T13:07:13;41.20;57.70
45008;DHT22;30743;52.008;5.644;2023-06-10T13:09:38;41.10;56.80
45008;DHT22;30743;52.008;5.644;2023-06-10T13:12:05;41.10;57.80
45008;DHT22;30743;52.008;5.644;2023-06-10T13:14:31;41.00;58.50
45008;DHT22;30743;52.008;5.644;2023-06-10T13:16:56;41.10;58.70
45008;DHT22;30743;52.008;5.644;2023-06-10T13:19:22;41.10;57.20
45008;DHT22;30743;52.008;5.644;2023-06-10T13:21:48;41.20;56.80
45008;DHT22;30743;52.008;5.644;2023-06-10T13:24:13;41.20;56.30
45008;DHT22;30743;52.008;5.644;2023-06-10T13:26:39;41.10;55.50
45008;DHT22;30743;52.008;5.644;2023-06-10T13:29:04;41.50;57.60
45008;DHT22;30743;52.008;5.644;2023-06-10T13:31:30;41.30;57.80
45008;DHT22;30743;52.008;5.644;2023-06-10T13:33:57;41.20;56.40
45008;DHT22;30743;52.008;5.644;2023-06-10T13:36:23;41.20;55.80
45008;DHT22;30743;52.008;5.644;2023-06-10T13:38:49;41.20;56.80
45008;DHT22;30743;52.008;5.644;2023-06-10T13:41:15;41.20;56.90
45008;DHT22;30743;52.008;5.644;2023-06-10T13:43:40;41.20;57.60
45008;DHT22;30743;52.008;5.644;2023-06-10T13:46:06;41.20;57.00
45008;DHT22;30743;52.008;5.644;2023-06-10T13:48:31;41.30;57.00
45008;DHT22;30743;52.008;5.644;2023-06-10T13:50:57;41.20;56.60
45008;DHT22;30743;52.008;5.644;2023-06-10T13:53:22;41.20;57.60
45008;DHT22;30743;52.008;5.644;2023-06-10T13:55:48;41.30;55.70
45008;DHT22;30743;52.008;5.644;2023-06-10T13:58:14;41.30;57.00
45008;DHT22;30743;52.008;5.644;2023-06-10T14:00:39;41.30;56.50
45008;DHT22;30743;52.008;5.644;2023-06-10T14:03:05;41.20;56.50
45008;DHT22;30743;52.008;5.644;2023-06-10T14:05:30;41.20;56.80
45008;DHT22;30743;52.008;5.644;2023-06-10T14:07:56;41.10;55.60
45008;DHT22;30743;52.008;5.644;2023-06-10T14:10:21;41.10;55.20
45008;DHT22;30743;52.008;5.644;2023-06-10T14:12:47;41.00;55.70
45008;DHT22;30743;52.008;5.644;2023-06-10T14:15:13;41.00;55.40
45008;DHT22;30743;52.008;5.644;2023-06-10T14:17:38;41.00;56.30
45008;DHT22;30743;52.008;5.644;2023-06-10T14:20:04;40.90;55.70
45008;DHT22;30743;52.008;5.644;2023-06-10T14:22:30;40.90;55.50
45008;DHT22;30743;52.008;5.644;2023-06-10T14:24:56;40.80;56.00
45008;DHT22;30743;52.008;5.644;2023-06-10T14:27:21;40.50;55.80
45008;DHT22;30743;52.008;5.644;2023-06-10T14:29:48;40.50;56.80
45008;DHT22;30743;52.008;5.644;2023-06-10T14:32:13;40.70;56.60
45008;DHT22;30743;52.008;5.644;2023-06-10T14:34:39;40.60;56.80
45008;DHT22;30743;52.008;5.644;2023-06-10T14:37:06;40.40;54.70
45008;DHT22;30743;52.008;5.644;2023-06-10T14:39:34;40.50;56.10
45008;DHT22;30743;52.008;5.644;2023-06-10T14:42:00;40.40;55.60
45008;DHT22;30743;52.008;5.644;2023-06-10T14:44:26;40.50;56.00
45008;DHT22;30743;52.008;5.644;2023-06-10T14:46:51;40.40;55.60
45008;DHT22;30743;52.008;5.644;2023-06-10T14:49:17;40.40;55.20
45008;DHT22;30743;52.008;5.644;2023-06-10T14:51:42;40.20;56.00
45008;DHT22;30743;52.008;5.644;2023-06-10T14:54:08;40.20;56.70
45008;DHT22;30743;52.008;5.644;2023-06-10T14:56:33;40.00;55.20
45008;DHT22;30743;52.008;5.644;2023-06-10T14:58:59;40.10;55.80
45008;DHT22;30743;52.008;5.644;2023-06-10T15:01:24;40.10;57.00
45008;DHT22;30743;52.008;5.644;2023-06-10T15:03:50;40.00;57.40
45008;DHT22;30743;52.008;5.644;2023-06-10T15:06:15;40.00;56.80
45008;DHT22;30743;52.008;5.644;2023-06-10T15:08:46;40.00;57.80
45008;DHT22;30743;52.008;5.644;2023-06-10T15:11:14;39.80;57.40
45008;DHT22;30743;52.008;5.644;2023-06-10T15:13:39;39.80;58.10
45008;DHT22;30743;52.008;5.644;2023-06-10T15:16:05;39.90;55.30
45008;DHT22;30743;52.008;5.644;2023-06-10T15:18:31;39.70;56.10
45008;DHT22;30743;52.008;5.644;2023-06-10T15:20:57;39.40;55.90
45008;DHT22;30743;52.008;5.644;2023-06-10T15:23:22;39.70;55.80
45008;DHT22;30743;52.008;5.644;2023-06-10T15:25:48;39.50;56.70
45008;DHT22;30743;52.008;5.644;2023-06-10T15:28:13;39.50;55.80
45008;DHT22;30743;52.008;5.644;2023-06-10T15:30:39;39.10;55.20
45008;DHT22;30743;52.008;5.644;2023-06-10T15:33:04;39.10;55.10
45008;DHT22;30743;52.008;5.644;2023-06-10T15:35:32;38.90;55.60
45008;DHT22;30743;52.008;5.644;2023-06-10T15:37:57;38.90;57.50
45008;DHT22;30743;52.008;5.644;2023-06-10T15:40:22;38.80;57.00
45008;DHT22;30743;52.008;5.644;2023-06-10T15:42:48;38.80;56.80
45008;DHT22;30743;52.008;5.644;2023-06-10T15:45:14;39.40;56.70
45008;DHT22;30743;52.008;5.644;2023-06-10T15:47:39;38.70;56.10
45008;DHT22;30743;52.008;5.644;2023-06-10T15:50:07;38.70;55.00